Aérodrome :
LOGIN :

S'inscrire | Disclaimer

   EN    FR    IT 

 










Légende :    VFR   VFR Marginal   IFR   IFR Intensif   IFR Très Intensif
Visi : 
Plafond : 
>= 8 km
>= 3000ft
5 à 8 km
1000 à 3000 ft
1500m à 5 km
500 à 1000 ft
800 à 1500m
200 à 500 ft
< 800m
< 200 ft
Symboles :   Orages  Brouillard  Fortes neiges  Fortes précipitations  Vent > 20 kt
SIGMETs :   Divers  Orages  Givrage  Turbulence  Onde Orograph.  Cendres Volcan.







- Altitude de l'aérodrome : 245 ft
- Code IATA : BIQ
- Voir les cartes d'approche


LFBZ - Biarritz

DERNIER METAR :
  • 232300Z AUTO 00000KT 9999 BKN022 OVC180 20/18 Q1018 TEMPO OVC006

METARs EXPIRÉS :
  • 232230Z AUTO VRB02KT 9999 BKN022 20/17 Q1018 TEMPO OVC006
  • 232200Z AUTO 14003KT 9999 OVC022 20/17 Q1018 TEMPO OVC006
  • 232130Z AUTO VRB01KT 9999 OVC023 20/16 Q1017 TEMPO OVC006
  • 232100Z AUTO VRB01KT 9999 OVC023 21/17 Q1018 BECMG BKN012
  • 232030Z AUTO VRB02KT 9999 BKN023 20/17 Q1018 BECMG BKN012

TAF TAF LFBZ
Valide du 23 à 18h jusqu'au 24 à 18h UTC


231700Z 2318/2418 34007KT 9999 BKN020 BKN200
TEMPO 2318/2321 -SHRA SCT020 FEW080CB BKN100TCU
PROB30
TEMPO 2318/2321 -TSRA BKN010 BKN080CB
BECMG 2321/2323 BKN012
TEMPO 2323/2406 OVC006
BECMG 2410/2412 CAVOK
BECMG 2415/2417 28011KT BKN013
Pas de NOTAMs connus pour ce terrain.
1 SIGMET publié pour la FIR Bordeaux (LFBB) :
 
Orages noyés dans la masse
LFBB SIGMET 11 VALID 232200/240200 LFPW
LFBB BORDEAUX FIR/UIR EMBD TS OBS WI N4230 E00145 - N4300 W00145 - N4515 E00030 - N4515 E00215 TOP FL400 MOV NE 10KT NC=



MET'MAP, la Météo Aéronautique d'un coup d'oeil ! - Copyright ORBIFLY Décembre 2007 - Disclaimer

ORBIFLY MET'MAP TEAM :

Programmation & Développement : Alexandra Zaïnal
Conception & Développement : Baudouin d'Aumeries
Co-Programmation & Développement : Marc-Olivier Méhu
Soutien technique & logistique : Manuel Goepfert

Contact : metmap@orbifly.com




SOURCES & CREDITS :

   NOAA